sensor_id;sensor_type;location;lat;lon;timestamp;temperature;humidity
24860;DHT22;12936;52.006;4.350;2024-02-14T00:02:09;9.60;99.90
24860;DHT22;12936;52.006;4.350;2024-02-14T00:04:37;9.60;99.90
24860;DHT22;12936;52.006;4.350;2024-02-14T00:07:30;9.60;99.90
24860;DHT22;12936;52.006;4.350;2024-02-14T00:10:03;9.60;99.90
24860;DHT22;12936;52.006;4.350;2024-02-14T00:12:34;9.60;99.90
24860;DHT22;12936;52.006;4.350;2024-02-14T00:15:06;9.60;99.90
24860;DHT22;12936;52.006;4.350;2024-02-14T00:17:35;9.60;99.90
24860;DHT22;12936;52.006;4.350;2024-02-14T00:20:04;9.60;99.90
24860;DHT22;12936;52.006;4.350;2024-02-14T00:22:34;9.70;99.90
24860;DHT22;12936;52.006;4.350;2024-02-14T00:25:03;9.70;99.90
24860;DHT22;12936;52.006;4.350;2024-02-14T00:27:32;9.70;99.90
24860;DHT22;12936;52.006;4.350;2024-02-14T00:30:01;9.70;99.90
24860;DHT22;12936;52.006;4.350;2024-02-14T00:32:33;9.80;99.90
24860;DHT22;12936;52.006;4.350;2024-02-14T00:35:03;9.70;99.90
24860;DHT22;12936;52.006;4.350;2024-02-14T00:37:33;9.80;99.90
24860;DHT22;12936;52.006;4.350;2024-02-14T00:40:04;9.80;99.90
24860;DHT22;12936;52.006;4.350;2024-02-14T00:42:32;9.80;99.90
24860;DHT22;12936;52.006;4.350;2024-02-14T00:45:04;9.80;99.90
24860;DHT22;12936;52.006;4.350;2024-02-14T00:47:35;9.80;99.90
24860;DHT22;12936;52.006;4.350;2024-02-14T00:50:06;9.80;99.90
24860;DHT22;12936;52.006;4.350;2024-02-14T00:52:36;9.90;99.90
24860;DHT22;12936;52.006;4.350;2024-02-14T00:55:08;9.90;99.90
24860;DHT22;12936;52.006;4.350;2024-02-14T00:57:38;9.90;99.90
24860;DHT22;12936;52.006;4.350;2024-02-14T01:00:07;9.90;99.90
24860;DHT22;12936;52.006;4.350;2024-02-14T01:02:38;9.90;99.90
24860;DHT22;12936;52.006;4.350;2024-02-14T01:05:08;9.90;99.90
24860;DHT22;12936;52.006;4.350;2024-02-14T01:07:38;9.90;99.90
24860;DHT22;12936;52.006;4.350;2024-02-14T01:10:07;9.90;99.90
24860;DHT22;12936;52.006;4.350;2024-02-14T01:12:36;10.00;99.90
24860;DHT22;12936;52.006;4.350;2024-02-14T01:15:05;10.00;99.90
24860;DHT22;12936;52.006;4.350;2024-02-14T01:17:36;10.00;99.90
24860;DHT22;12936;52.006;4.350;2024-02-14T01:20:07;10.10;99.90
24860;DHT22;12936;52.006;4.350;2024-02-14T01:22:37;10.10;99.90
24860;DHT22;12936;52.006;4.350;2024-02-14T01:25:07;10.10;99.90
24860;DHT22;12936;52.006;4.350;2024-02-14T01:27:39;10.10;99.90
24860;DHT22;12936;52.006;4.350;2024-02-14T01:30:08;10.10;99.90
24860;DHT22;12936;52.006;4.350;2024-02-14T01:32:38;10.20;99.90
24860;DHT22;12936;52.006;4.350;2024-02-14T01:35:08;10.20;99.90
24860;DHT22;12936;52.006;4.350;2024-02-14T01:37:38;10.20;99.90
24860;DHT22;12936;52.006;4.350;2024-02-14T01:40:07;10.20;99.90
24860;DHT22;12936;52.006;4.350;2024-02-14T01:42:36;10.20;99.90
24860;DHT22;12936;52.006;4.350;2024-02-14T01:45:07;10.20;99.90
24860;DHT22;12936;52.006;4.350;2024-02-14T01:47:40;10.30;99.90
24860;DHT22;12936;52.006;4.350;2024-02-14T01:50:10;10.30;99.90
24860;DHT22;12936;52.006;4.350;2024-02-14T01:52:41;10.30;99.90
24860;DHT22;12936;52.006;4.350;2024-02-14T01:55:11;10.30;99.90
24860;DHT22;12936;52.006;4.350;2024-02-14T01:57:40;10.30;99.90
24860;DHT22;12936;52.006;4.350;2024-02-14T02:00:09;10.30;99.90
24860;DHT22;12936;52.006;4.350;2024-02-14T02:02:42;10.30;99.90
24860;DHT22;12936;52.006;4.350;2024-02-14T02:05:11;10.30;99.90
24860;DHT22;12936;52.006;4.350;2024-02-14T02:07:42;10.30;99.90
24860;DHT22;12936;52.006;4.350;2024-02-14T02:10:10;10.40;99.90
24860;DHT22;12936;52.006;4.350;2024-02-14T02:12:39;10.40;99.90
24860;DHT22;12936;52.006;4.350;2024-02-14T02:15:09;10.40;99.90
24860;DHT22;12936;52.006;4.350;2024-02-14T02:17:40;10.40;99.90
24860;DHT22;12936;52.006;4.350;2024-02-14T02:20:12;10.40;99.90
24860;DHT22;12936;52.006;4.350;2024-02-14T02:22:46;10.40;99.90
24860;DHT22;12936;52.006;4.350;2024-02-14T02:25:17;10.50;99.90
24860;DHT22;12936;52.006;4.350;2024-02-14T02:27:50;10.40;99.90
24860;DHT22;12936;52.006;4.350;2024-02-14T02:30:21;10.50;99.90
24860;DHT22;12936;52.006;4.350;2024-02-14T02:32:49;10.50;99.90
24860;DHT22;12936;52.006;4.350;2024-02-14T02:35:39;10.50;99.90
24860;DHT22;12936;52.006;4.350;2024-02-14T02:38:10;10.60;99.90
24860;DHT22;12936;52.006;4.350;2024-02-14T02:40:39;10.60;99.90
24860;DHT22;12936;52.006;4.350;2024-02-14T02:43:08;10.60;99.90
24860;DHT22;12936;52.006;4.350;2024-02-14T02:45:39;10.60;99.90
24860;DHT22;12936;52.006;4.350;2024-02-14T02:48:07;10.60;99.90
24860;DHT22;12936;52.006;4.350;2024-02-14T02:50:38;10.70;99.90
24860;DHT22;12936;52.006;4.350;2024-02-14T02:53:10;10.70;99.90
24860;DHT22;12936;52.006;4.350;2024-02-14T02:55:38;10.70;99.90
24860;DHT22;12936;52.006;4.350;2024-02-14T02:58:08;10.70;99.90
24860;DHT22;12936;52.006;4.350;2024-02-14T03:00:36;10.70;99.90
24860;DHT22;12936;52.006;4.350;2024-02-14T03:03:07;10.70;99.90
24860;DHT22;12936;52.006;4.350;2024-02-14T03:05:36;10.80;99.90
24860;DHT22;12936;52.006;4.350;2024-02-14T03:08:06;10.80;99.90
24860;DHT22;12936;52.006;4.350;2024-02-14T03:10:52;10.80;99.90
24860;DHT22;12936;52.006;4.350;2024-02-14T03:13:20;10.80;99.90
24860;DHT22;12936;52.006;4.350;2024-02-14T03:15:49;10.80;99.90
24860;DHT22;12936;52.006;4.350;2024-02-14T03:18:18;10.90;99.90
24860;DHT22;12936;52.006;4.350;2024-02-14T03:20:47;11.00;99.90
24860;DHT22;12936;52.006;4.350;2024-02-14T03:23:17;10.90;99.90
24860;DHT22;12936;52.006;4.350;2024-02-14T03:25:45;10.90;99.90
24860;DHT22;12936;52.006;4.350;2024-02-14T03:28:15;11.00;99.90
24860;DHT22;12936;52.006;4.350;2024-02-14T03:30:46;11.00;99.90
24860;DHT22;12936;52.006;4.350;2024-02-14T03:33:14;11.00;99.90
24860;DHT22;12936;52.006;4.350;2024-02-14T03:35:43;11.00;99.90
24860;DHT22;12936;52.006;4.350;2024-02-14T03:38:16;11.00;99.90
24860;DHT22;12936;52.006;4.350;2024-02-14T03:40:52;11.00;99.90
24860;DHT22;12936;52.006;4.350;2024-02-14T03:43:23;11.10;99.90
24860;DHT22;12936;52.006;4.350;2024-02-14T03:45:51;11.10;99.90
24860;DHT22;12936;52.006;4.350;2024-02-14T03:48:23;11.10;99.90
24860;DHT22;12936;52.006;4.350;2024-02-14T03:50:51;11.10;99.90
24860;DHT22;12936;52.006;4.350;2024-02-14T03:53:22;11.10;99.90
24860;DHT22;12936;52.006;4.350;2024-02-14T03:55:50;11.10;99.90
24860;DHT22;12936;52.006;4.350;2024-02-14T03:58:22;11.10;99.90
24860;DHT22;12936;52.006;4.350;2024-02-14T04:00:51;11.10;99.90
24860;DHT22;12936;52.006;4.350;2024-02-14T04:03:19;11.10;99.90
24860;DHT22;12936;52.006;4.350;2024-02-14T04:05:48;11.10;99.90
24860;DHT22;12936;52.006;4.350;2024-02-14T04:08:16;11.10;99.90
24860;DHT22;12936;52.006;4.350;2024-02-14T04:10:48;11.20;99.90
24860;DHT22;12936;52.006;4.350;2024-02-14T04:13:17;11.20;99.90
24860;DHT22;12936;52.006;4.350;2024-02-14T04:15:48;11.20;99.90
24860;DHT22;12936;52.006;4.350;2024-02-14T04:18:18;11.20;99.90
24860;DHT22;12936;52.006;4.350;2024-02-14T04:20:47;11.20;99.90
24860;DHT22;12936;52.006;4.350;2024-02-14T04:23:16;11.20;99.90
24860;DHT22;12936;52.006;4.350;2024-02-14T04:25:44;11.20;99.90
24860;DHT22;12936;52.006;4.350;2024-02-14T04:28:15;11.20;99.90
24860;DHT22;12936;52.006;4.350;2024-02-14T04:30:48;11.20;99.90
24860;DHT22;12936;52.006;4.350;2024-02-14T04:33:19;11.20;99.90
24860;DHT22;12936;52.006;4.350;2024-02-14T04:35:51;11.20;99.90
24860;DHT22;12936;52.006;4.350;2024-02-14T04:38:20;11.20;99.90
24860;DHT22;12936;52.006;4.350;2024-02-14T04:40:48;11.20;99.90
24860;DHT22;12936;52.006;4.350;2024-02-14T04:43:19;11.30;99.90
24860;DHT22;12936;52.006;4.350;2024-02-14T04:45:49;11.30;99.90
24860;DHT22;12936;52.006;4.350;2024-02-14T04:48:19;11.30;99.90
24860;DHT22;12936;52.006;4.350;2024-02-14T04:50:47;11.30;99.90
24860;DHT22;12936;52.006;4.350;2024-02-14T04:53:19;11.30;99.90
24860;DHT22;12936;52.006;4.350;2024-02-14T04:55:48;11.30;99.90
24860;DHT22;12936;52.006;4.350;2024-02-14T04:58:17;11.30;99.90
24860;DHT22;12936;52.006;4.350;2024-02-14T05:00:49;11.40;99.90
24860;DHT22;12936;52.006;4.350;2024-02-14T05:03:37;11.40;99.90
24860;DHT22;12936;52.006;4.350;2024-02-14T05:06:06;11.40;99.90
24860;DHT22;12936;52.006;4.350;2024-02-14T05:08:34;11.40;99.90
24860;DHT22;12936;52.006;4.350;2024-02-14T05:11:03;11.40;99.90
24860;DHT22;12936;52.006;4.350;2024-02-14T05:13:31;11.40;99.90
24860;DHT22;12936;52.006;4.350;2024-02-14T05:16:04;11.40;99.90
24860;DHT22;12936;52.006;4.350;2024-02-14T05:18:33;11.50;99.90
24860;DHT22;12936;52.006;4.350;2024-02-14T05:21:22;11.50;99.90
24860;DHT22;12936;52.006;4.350;2024-02-14T05:23:51;11.50;99.90
24860;DHT22;12936;52.006;4.350;2024-02-14T05:26:20;11.50;99.90
24860;DHT22;12936;52.006;4.350;2024-02-14T05:28:51;11.50;99.90
24860;DHT22;12936;52.006;4.350;2024-02-14T05:31:22;11.50;99.90
24860;DHT22;12936;52.006;4.350;2024-02-14T05:33:50;11.50;99.90
24860;DHT22;12936;52.006;4.350;2024-02-14T05:36:18;11.50;99.90
24860;DHT22;12936;52.006;4.350;2024-02-14T05:38:47;11.50;99.90
24860;DHT22;12936;52.006;4.350;2024-02-14T05:41:16;11.50;99.90
24860;DHT22;12936;52.006;4.350;2024-02-14T05:43:45;11.50;99.90
24860;DHT22;12936;52.006;4.350;2024-02-14T05:46:13;11.50;99.90
24860;DHT22;12936;52.006;4.350;2024-02-14T05:48:42;11.50;99.90
24860;DHT22;12936;52.006;4.350;2024-02-14T05:51:11;11.50;99.90
24860;DHT22;12936;52.006;4.350;2024-02-14T05:53:39;11.60;99.90
24860;DHT22;12936;52.006;4.350;2024-02-14T05:56:07;11.60;99.90
24860;DHT22;12936;52.006;4.350;2024-02-14T05:58:35;11.60;99.90
24860;DHT22;12936;52.006;4.350;2024-02-14T06:01:03;11.50;99.90
24860;DHT22;12936;52.006;4.350;2024-02-14T06:03:32;11.60;99.90
24860;DHT22;12936;52.006;4.350;2024-02-14T06:06:02;11.60;99.90
24860;DHT22;12936;52.006;4.350;2024-02-14T06:08:30;11.60;99.90
24860;DHT22;12936;52.006;4.350;2024-02-14T06:10:59;11.50;99.90
24860;DHT22;12936;52.006;4.350;2024-02-14T06:13:27;11.60;99.90
24860;DHT22;12936;52.006;4.350;2024-02-14T06:15:55;11.60;99.90
24860;DHT22;12936;52.006;4.350;2024-02-14T06:18:23;11.50;99.90
24860;DHT22;12936;52.006;4.350;2024-02-14T06:20:51;11.60;99.90
24860;DHT22;12936;52.006;4.350;2024-02-14T06:23:21;11.60;99.90
24860;DHT22;12936;52.006;4.350;2024-02-14T06:25:49;11.60;99.90
24860;DHT22;12936;52.006;4.350;2024-02-14T06:28:17;11.60;99.90
24860;DHT22;12936;52.006;4.350;2024-02-14T06:30:45;11.60;99.90
24860;DHT22;12936;52.006;4.350;2024-02-14T06:33:14;11.60;99.90
24860;DHT22;12936;52.006;4.350;2024-02-14T06:35:42;11.60;99.90
24860;DHT22;12936;52.006;4.350;2024-02-14T06:38:11;11.60;99.90
24860;DHT22;12936;52.006;4.350;2024-02-14T06:40:40;11.60;99.90
24860;DHT22;12936;52.006;4.350;2024-02-14T06:43:08;11.50;99.90
24860;DHT22;12936;52.006;4.350;2024-02-14T06:45:36;11.60;99.90
24860;DHT22;12936;52.006;4.350;2024-02-14T06:48:05;11.60;99.90
24860;DHT22;12936;52.006;4.350;2024-02-14T06:50:35;11.60;99.90
24860;DHT22;12936;52.006;4.350;2024-02-14T06:53:04;11.60;99.90
24860;DHT22;12936;52.006;4.350;2024-02-14T06:55:32;11.60;99.90
24860;DHT22;12936;52.006;4.350;2024-02-14T06:58:01;11.60;99.90
24860;DHT22;12936;52.006;4.350;2024-02-14T07:00:32;11.60;99.90
24860;DHT22;12936;52.006;4.350;2024-02-14T07:03:00;11.60;99.90
24860;DHT22;12936;52.006;4.350;2024-02-14T07:05:28;11.50;99.90
24860;DHT22;12936;52.006;4.350;2024-02-14T07:07:57;11.60;99.90
24860;DHT22;12936;52.006;4.350;2024-02-14T07:10:25;11.60;99.90
24860;DHT22;12936;52.006;4.350;2024-02-14T07:12:53;11.60;99.90
24860;DHT22;12936;52.006;4.350;2024-02-14T07:15:23;11.60;99.90
24860;DHT22;12936;52.006;4.350;2024-02-14T07:17:55;11.60;99.90
24860;DHT22;12936;52.006;4.350;2024-02-14T07:20:25;11.60;99.90
24860;DHT22;12936;52.006;4.350;2024-02-14T07:22:54;11.60;99.90
24860;DHT22;12936;52.006;4.350;2024-02-14T07:25:24;11.60;99.90
24860;DHT22;12936;52.006;4.350;2024-02-14T07:27:52;11.60;99.90
24860;DHT22;12936;52.006;4.350;2024-02-14T07:30:20;11.60;99.90
24860;DHT22;12936;52.006;4.350;2024-02-14T07:32:50;11.70;99.90
24860;DHT22;12936;52.006;4.350;2024-02-14T07:35:19;11.60;99.90
24860;DHT22;12936;52.006;4.350;2024-02-14T07:37:47;11.60;99.90
24860;DHT22;12936;52.006;4.350;2024-02-14T07:40:16;11.60;99.90
24860;DHT22;12936;52.006;4.350;2024-02-14T07:42:44;11.60;99.90
24860;DHT22;12936;52.006;4.350;2024-02-14T07:45:13;11.60;99.90
24860;DHT22;12936;52.006;4.350;2024-02-14T07:47:42;11.70;99.90
24860;DHT22;12936;52.006;4.350;2024-02-14T07:50:12;11.70;99.90
24860;DHT22;12936;52.006;4.350;2024-02-14T07:52:42;11.60;99.90
24860;DHT22;12936;52.006;4.350;2024-02-14T07:55:11;11.70;99.90
24860;DHT22;12936;52.006;4.350;2024-02-14T07:57:42;11.70;99.90
24860;DHT22;12936;52.006;4.350;2024-02-14T08:00:11;11.70;99.90
24860;DHT22;12936;52.006;4.350;2024-02-14T08:02:45;11.70;99.90
24860;DHT22;12936;52.006;4.350;2024-02-14T08:05:16;11.70;99.90
24860;DHT22;12936;52.006;4.350;2024-02-14T08:07:44;11.70;99.90
24860;DHT22;12936;52.006;4.350;2024-02-14T08:10:14;11.70;99.90
24860;DHT22;12936;52.006;4.350;2024-02-14T08:12:42;11.70;99.90
24860;DHT22;12936;52.006;4.350;2024-02-14T08:15:10;11.70;99.90
24860;DHT22;12936;52.006;4.350;2024-02-14T08:17:39;11.80;99.90
24860;DHT22;12936;52.006;4.350;2024-02-14T08:20:13;11.80;99.90
24860;DHT22;12936;52.006;4.350;2024-02-14T08:22:43;11.80;99.90
24860;DHT22;12936;52.006;4.350;2024-02-14T08:25:11;11.70;99.90
24860;DHT22;12936;52.006;4.350;2024-02-14T08:27:39;11.70;99.90
24860;DHT22;12936;52.006;4.350;2024-02-14T08:30:09;11.70;99.90
24860;DHT22;12936;52.006;4.350;2024-02-14T08:32:38;11.70;99.90
24860;DHT22;12936;52.006;4.350;2024-02-14T08:35:07;11.70;99.90
24860;DHT22;12936;52.006;4.350;2024-02-14T08:37:37;11.70;99.90
24860;DHT22;12936;52.006;4.350;2024-02-14T08:40:09;11.70;99.90
24860;DHT22;12936;52.006;4.350;2024-02-14T08:42:39;11.70;99.90
24860;DHT22;12936;52.006;4.350;2024-02-14T08:45:08;11.80;99.90
24860;DHT22;12936;52.006;4.350;2024-02-14T08:47:37;11.70;99.90
24860;DHT22;12936;52.006;4.350;2024-02-14T08:50:07;11.70;99.90
24860;DHT22;12936;52.006;4.350;2024-02-14T08:52:36;11.70;99.90
24860;DHT22;12936;52.006;4.350;2024-02-14T08:55:05;11.70;99.90
24860;DHT22;12936;52.006;4.350;2024-02-14T08:57:39;11.70;99.90
24860;DHT22;12936;52.006;4.350;2024-02-14T09:00:08;11.70;99.90
24860;DHT22;12936;52.006;4.350;2024-02-14T09:02:39;11.70;99.90
24860;DHT22;12936;52.006;4.350;2024-02-14T09:05:11;11.70;99.90
24860;DHT22;12936;52.006;4.350;2024-02-14T09:07:39;11.70;99.90
24860;DHT22;12936;52.006;4.350;2024-02-14T09:10:09;11.70;99.90
24860;DHT22;12936;52.006;4.350;2024-02-14T09:12:41;11.70;99.90
24860;DHT22;12936;52.006;4.350;2024-02-14T09:15:10;11.70;99.90
24860;DHT22;12936;52.006;4.350;2024-02-14T09:17:39;11.70;99.90
24860;DHT22;12936;52.006;4.350;2024-02-14T09:20:09;11.70;99.90
24860;DHT22;12936;52.006;4.350;2024-02-14T09:22:41;11.80;99.90
24860;DHT22;12936;52.006;4.350;2024-02-14T09:25:10;11.80;99.90
24860;DHT22;12936;52.006;4.350;2024-02-14T09:27:38;11.80;99.90
24860;DHT22;12936;52.006;4.350;2024-02-14T09:30:09;11.80;99.90
24860;DHT22;12936;52.006;4.350;2024-02-14T09:32:53;11.80;99.90
24860;DHT22;12936;52.006;4.350;2024-02-14T09:35:22;11.80;99.90
24860;DHT22;12936;52.006;4.350;2024-02-14T09:37:54;11.80;99.90
24860;DHT22;12936;52.006;4.350;2024-02-14T09:40:23;11.80;99.90
24860;DHT22;12936;52.006;4.350;2024-02-14T09:42:54;11.80;99.90
24860;DHT22;12936;52.006;4.350;2024-02-14T09:45:25;11.80;99.90
24860;DHT22;12936;52.006;4.350;2024-02-14T09:47:53;11.80;99.90
24860;DHT22;12936;52.006;4.350;2024-02-14T09:50:23;11.80;99.90
24860;DHT22;12936;52.006;4.350;2024-02-14T09:52:54;11.80;99.90
24860;DHT22;12936;52.006;4.350;2024-02-14T09:55:25;11.80;99.90
24860;DHT22;12936;52.006;4.350;2024-02-14T09:57:54;11.90;99.90
24860;DHT22;12936;52.006;4.350;2024-02-14T10:00:24;11.90;99.90
24860;DHT22;12936;52.006;4.350;2024-02-14T10:02:53;11.90;99.90
24860;DHT22;12936;52.006;4.350;2024-02-14T10:05:21;11.90;99.90
24860;DHT22;12936;52.006;4.350;2024-02-14T10:07:50;11.90;99.90
24860;DHT22;12936;52.006;4.350;2024-02-14T10:10:18;11.90;99.90
24860;DHT22;12936;52.006;4.350;2024-02-14T10:12:48;11.90;99.90
24860;DHT22;12936;52.006;4.350;2024-02-14T10:15:17;11.90;99.90
24860;DHT22;12936;52.006;4.350;2024-02-14T10:17:46;12.00;99.90
24860;DHT22;12936;52.006;4.350;2024-02-14T10:20:17;12.00;99.90
24860;DHT22;12936;52.006;4.350;2024-02-14T10:22:46;12.00;99.90
24860;DHT22;12936;52.006;4.350;2024-02-14T10:25:14;12.00;99.90
24860;DHT22;12936;52.006;4.350;2024-02-14T10:27:42;12.00;99.90
24860;DHT22;12936;52.006;4.350;2024-02-14T10:30:11;11.90;99.90
24860;DHT22;12936;52.006;4.350;2024-02-14T10:32:41;12.00;99.90
24860;DHT22;12936;52.006;4.350;2024-02-14T10:35:16;12.00;99.90
24860;DHT22;12936;52.006;4.350;2024-02-14T10:37:44;12.00;99.90
24860;DHT22;12936;52.006;4.350;2024-02-14T10:40:13;12.00;99.90
24860;DHT22;12936;52.006;4.350;2024-02-14T10:42:41;12.00;99.90
24860;DHT22;12936;52.006;4.350;2024-02-14T10:45:09;12.00;99.90
24860;DHT22;12936;52.006;4.350;2024-02-14T10:47:40;12.00;99.90
24860;DHT22;12936;52.006;4.350;2024-02-14T10:50:13;12.00;99.90
24860;DHT22;12936;52.006;4.350;2024-02-14T10:52:44;12.00;99.90
24860;DHT22;12936;52.006;4.350;2024-02-14T10:55:16;12.10;99.90
24860;DHT22;12936;52.006;4.350;2024-02-14T10:57:45;12.10;99.90
24860;DHT22;12936;52.006;4.350;2024-02-14T11:00:15;12.10;99.90
24860;DHT22;12936;52.006;4.350;2024-02-14T11:02:45;12.10;99.90
24860;DHT22;12936;52.006;4.350;2024-02-14T11:05:15;12.10;99.90
24860;DHT22;12936;52.006;4.350;2024-02-14T11:07:46;12.10;99.90
24860;DHT22;12936;52.006;4.350;2024-02-14T11:10:16;12.20;99.90
24860;DHT22;12936;52.006;4.350;2024-02-14T11:12:46;12.20;99.90
24860;DHT22;12936;52.006;4.350;2024-02-14T11:15:18;12.20;99.90
24860;DHT22;12936;52.006;4.350;2024-02-14T11:17:47;12.20;99.90
24860;DHT22;12936;52.006;4.350;2024-02-14T11:20:17;12.20;99.90
24860;DHT22;12936;52.006;4.350;2024-02-14T11:22:57;12.20;99.90
24860;DHT22;12936;52.006;4.350;2024-02-14T11:25:30;12.30;99.90
24860;DHT22;12936;52.006;4.350;2024-02-14T11:27:59;12.20;99.90
24860;DHT22;12936;52.006;4.350;2024-02-14T11:30:30;12.20;99.90
24860;DHT22;12936;52.006;4.350;2024-02-14T11:33:16;12.30;99.90
24860;DHT22;12936;52.006;4.350;2024-02-14T11:35:47;12.20;99.90
24860;DHT22;12936;52.006;4.350;2024-02-14T11:38:18;12.30;99.90
24860;DHT22;12936;52.006;4.350;2024-02-14T11:40:47;12.20;99.90
24860;DHT22;12936;52.006;4.350;2024-02-14T11:43:18;12.30;99.90
24860;DHT22;12936;52.006;4.350;2024-02-14T11:45:51;12.30;99.90
24860;DHT22;12936;52.006;4.350;2024-02-14T11:48:20;12.30;99.90
24860;DHT22;12936;52.006;4.350;2024-02-14T11:50:53;12.30;99.90
24860;DHT22;12936;52.006;4.350;2024-02-14T11:53:24;12.30;99.90
24860;DHT22;12936;52.006;4.350;2024-02-14T11:55:52;12.30;99.90
24860;DHT22;12936;52.006;4.350;2024-02-14T11:58:20;12.30;99.90
24860;DHT22;12936;52.006;4.350;2024-02-14T12:00:48;12.30;99.90
24860;DHT22;12936;52.006;4.350;2024-02-14T12:03:19;12.30;99.90
24860;DHT22;12936;52.006;4.350;2024-02-14T12:05:49;12.30;99.90
24860;DHT22;12936;52.006;4.350;2024-02-14T12:08:19;12.30;99.90
24860;DHT22;12936;52.006;4.350;2024-02-14T12:10:49;12.40;99.90
24860;DHT22;12936;52.006;4.350;2024-02-14T12:13:21;12.40;99.90
24860;DHT22;12936;52.006;4.350;2024-02-14T12:15:50;12.40;99.90
24860;DHT22;12936;52.006;4.350;2024-02-14T12:18:20;12.40;99.90
24860;DHT22;12936;52.006;4.350;2024-02-14T12:20:49;12.40;99.90
24860;DHT22;12936;52.006;4.350;2024-02-14T12:23:22;12.50;99.90
24860;DHT22;12936;52.006;4.350;2024-02-14T12:26:01;12.40;99.90
24860;DHT22;12936;52.006;4.350;2024-02-14T12:28:32;12.40;99.90
24860;DHT22;12936;52.006;4.350;2024-02-14T12:31:01;12.50;99.90
24860;DHT22;12936;52.006;4.350;2024-02-14T12:33:29;12.50;99.90
24860;DHT22;12936;52.006;4.350;2024-02-14T12:35:59;12.40;99.90
24860;DHT22;12936;52.006;4.350;2024-02-14T12:38:27;12.40;99.90
24860;DHT22;12936;52.006;4.350;2024-02-14T12:40:58;12.40;99.90
24860;DHT22;12936;52.006;4.350;2024-02-14T12:43:28;12.50;99.90
24860;DHT22;12936;52.006;4.350;2024-02-14T12:45:56;12.50;99.90
24860;DHT22;12936;52.006;4.350;2024-02-14T12:48:25;12.50;99.90
24860;DHT22;12936;52.006;4.350;2024-02-14T12:50:55;12.50;99.90
24860;DHT22;12936;52.006;4.350;2024-02-14T12:53:25;12.50;99.90
24860;DHT22;12936;52.006;4.350;2024-02-14T12:55:53;12.50;99.90
24860;DHT22;12936;52.006;4.350;2024-02-14T12:58:23;12.50;99.90
24860;DHT22;12936;52.006;4.350;2024-02-14T13:00:51;12.50;99.90
24860;DHT22;12936;52.006;4.350;2024-02-14T13:03:20;12.50;99.90
24860;DHT22;12936;52.006;4.350;2024-02-14T13:05:48;12.50;99.90
24860;DHT22;12936;52.006;4.350;2024-02-14T13:08:17;12.50;99.90
24860;DHT22;12936;52.006;4.350;2024-02-14T13:10:45;12.50;99.90
24860;DHT22;12936;52.006;4.350;2024-02-14T13:13:16;12.50;99.90
24860;DHT22;12936;52.006;4.350;2024-02-14T13:15:46;12.50;99.90
24860;DHT22;12936;52.006;4.350;2024-02-14T13:18:14;12.50;99.90
24860;DHT22;12936;52.006;4.350;2024-02-14T13:20:43;12.50;99.90
24860;DHT22;12936;52.006;4.350;2024-02-14T13:23:12;12.50;99.90
24860;DHT22;12936;52.006;4.350;2024-02-14T13:25:41;12.60;99.90
24860;DHT22;12936;52.006;4.350;2024-02-14T13:28:09;12.60;99.90
24860;DHT22;12936;52.006;4.350;2024-02-14T13:30:37;12.60;99.90
24860;DHT22;12936;52.006;4.350;2024-02-14T13:33:07;12.60;99.90
24860;DHT22;12936;52.006;4.350;2024-02-14T13:35:39;12.60;99.90
24860;DHT22;12936;52.006;4.350;2024-02-14T13:38:07;12.70;99.90
24860;DHT22;12936;52.006;4.350;2024-02-14T13:40:36;12.70;99.90
24860;DHT22;12936;52.006;4.350;2024-02-14T13:43:05;12.70;99.90
24860;DHT22;12936;52.006;4.350;2024-02-14T13:45:41;12.70;99.90
24860;DHT22;12936;52.006;4.350;2024-02-14T13:48:11;12.70;99.90
24860;DHT22;12936;52.006;4.350;2024-02-14T13:50:40;12.70;99.90
24860;DHT22;12936;52.006;4.350;2024-02-14T13:53:10;12.70;99.90
24860;DHT22;12936;52.006;4.350;2024-02-14T13:55:38;12.70;99.90
24860;DHT22;12936;52.006;4.350;2024-02-14T13:58:07;12.70;99.90
24860;DHT22;12936;52.006;4.350;2024-02-14T14:00:41;12.80;99.90
24860;DHT22;12936;52.006;4.350;2024-02-14T14:03:11;12.80;99.90
24860;DHT22;12936;52.006;4.350;2024-02-14T14:05:40;12.80;99.90
24860;DHT22;12936;52.006;4.350;2024-02-14T14:08:08;12.80;99.90
24860;DHT22;12936;52.006;4.350;2024-02-14T14:10:36;12.80;99.90
24860;DHT22;12936;52.006;4.350;2024-02-14T14:13:04;12.80;99.90
24860;DHT22;12936;52.006;4.350;2024-02-14T14:15:33;12.70;99.90
24860;DHT22;12936;52.006;4.350;2024-02-14T14:18:01;12.70;99.90
24860;DHT22;12936;52.006;4.350;2024-02-14T14:20:31;12.70;99.90
24860;DHT22;12936;52.006;4.350;2024-02-14T14:22:59;12.70;99.90
24860;DHT22;12936;52.006;4.350;2024-02-14T14:25:30;12.80;99.90
24860;DHT22;12936;52.006;4.350;2024-02-14T14:27:58;12.80;99.90
24860;DHT22;12936;52.006;4.350;2024-02-14T14:30:33;12.70;99.90
24860;DHT22;12936;52.006;4.350;2024-02-14T14:33:01;12.70;99.90
24860;DHT22;12936;52.006;4.350;2024-02-14T14:35:31;12.70;99.90
24860;DHT22;12936;52.006;4.350;2024-02-14T14:38:00;12.70;99.90
24860;DHT22;12936;52.006;4.350;2024-02-14T14:40:29;12.70;99.90
24860;DHT22;12936;52.006;4.350;2024-02-14T14:42:58;12.70;99.90
24860;DHT22;12936;52.006;4.350;2024-02-14T14:45:26;12.70;99.90
24860;DHT22;12936;52.006;4.350;2024-02-14T14:47:55;12.60;99.90
24860;DHT22;12936;52.006;4.350;2024-02-14T14:50:24;12.70;99.90
24860;DHT22;12936;52.006;4.350;2024-02-14T14:52:54;12.60;99.90
24860;DHT22;12936;52.006;4.350;2024-02-14T14:55:22;12.70;99.90
24860;DHT22;12936;52.006;4.350;2024-02-14T14:57:50;12.60;99.90
24860;DHT22;12936;52.006;4.350;2024-02-14T15:00:18;12.60;99.90
24860;DHT22;12936;52.006;4.350;2024-02-14T15:02:47;12.60;99.90
24860;DHT22;12936;52.006;4.350;2024-02-14T15:05:17;12.70;99.90
24860;DHT22;12936;52.006;4.350;2024-02-14T15:07:47;12.70;99.90
24860;DHT22;12936;52.006;4.350;2024-02-14T15:10:20;12.60;99.90
24860;DHT22;12936;52.006;4.350;2024-02-14T15:12:48;12.60;99.90
24860;DHT22;12936;52.006;4.350;2024-02-14T15:15:16;12.60;99.90
24860;DHT22;12936;52.006;4.350;2024-02-14T15:17:46;12.60;99.90
24860;DHT22;12936;52.006;4.350;2024-02-14T15:20:14;12.60;99.90
24860;DHT22;12936;52.006;4.350;2024-02-14T15:22:43;12.50;99.90
24860;DHT22;12936;52.006;4.350;2024-02-14T15:25:11;12.50;99.90
24860;DHT22;12936;52.006;4.350;2024-02-14T15:27:41;12.40;99.90
24860;DHT22;12936;52.006;4.350;2024-02-14T15:30:23;12.40;99.90
24860;DHT22;12936;52.006;4.350;2024-02-14T15:33:09;12.40;99.90
24860;DHT22;12936;52.006;4.350;2024-02-14T15:35:50;12.40;99.90
24860;DHT22;12936;52.006;4.350;2024-02-14T15:38:19;12.40;99.90
24860;DHT22;12936;52.006;4.350;2024-02-14T15:40:47;12.40;99.90
24860;DHT22;12936;52.006;4.350;2024-02-14T15:43:20;12.40;99.90
24860;DHT22;12936;52.006;4.350;2024-02-14T15:45:49;12.40;99.90
24860;DHT22;12936;52.006;4.350;2024-02-14T15:48:17;12.40;99.90
24860;DHT22;12936;52.006;4.350;2024-02-14T15:50:46;12.50;99.90